Terminal Aerodrome Forecast
Issued by NWS

Home | Current Version | Previous Version | Text Only | Print | Product List | Glossary On
Versions: 1 2 3 4 5 6 7 8 9 10 11 12 13 14 15 16 17 18 19 20 21 22 23 24
000
FTUS43 KBIS 271700
TAFJMS
TAF
KJMS 271737Z 2718/2818 28010KT P6SM FEW040
     FM272000 27009KT P6SM SCT040 BKN100
     FM280000 28005KT P6SM BKN050 BKN090
     FM280500 36007KT 6SM -SN BR OVC025
     FM281400 02010KT P6SM -SN SCT025 BKN080=

USA.gov is the U.S. government's official web portal to all federal, state and local government web resources and services.